sensor_id;sensor_type;location;lat;lon;timestamp;pressure;altitude;pressure_sealevel;temperature;humidity
64354;BME280;50681;53.334;-6.536;2023-09-30T00:00:00;101630.03;;;17.41;100.00
64354;BME280;50681;53.334;-6.536;2023-09-30T00:02:26;101637.22;;;17.37;100.00
64354;BME280;50681;53.334;-6.536;2023-09-30T00:04:54;101636.22;;;17.33;100.00
64354;BME280;50681;53.334;-6.536;2023-09-30T00:07:20;101638.31;;;17.13;100.00
64354;BME280;50681;53.334;-6.536;2023-09-30T00:09:45;101628.44;;;17.03;100.00
64354;BME280;50681;53.334;-6.536;2023-09-30T00:12:11;101632.28;;;17.02;100.00
64354;BME280;50681;53.334;-6.536;2023-09-30T00:14:36;101631.78;;;16.86;100.00
64354;BME280;50681;53.334;-6.536;2023-09-30T00:17:03;101642.09;;;17.03;100.00
64354;BME280;50681;53.334;-6.536;2023-09-30T00:22:51;101642.78;;;16.95;100.00
64354;BME280;50681;53.334;-6.536;2023-09-30T00:25:16;101635.81;;;16.89;100.00
64354;BME280;50681;53.334;-6.536;2023-09-30T00:27:55;101641.47;;;17.07;100.00
64354;BME280;50681;53.334;-6.536;2023-09-30T00:30:26;101643.72;;;17.04;100.00
64354;BME280;50681;53.334;-6.536;2023-09-30T00:32:51;101639.06;;;16.77;100.00
64354;BME280;50681;53.334;-6.536;2023-09-30T00:35:17;101644.41;;;16.82;100.00
64354;BME280;50681;53.334;-6.536;2023-09-30T00:38:07;101642.78;;;17.09;100.00
64354;BME280;50681;53.334;-6.536;2023-09-30T00:40:49;101643.50;;;17.01;100.00
64354;BME280;50681;53.334;-6.536;2023-09-30T00:43:21;101647.72;;;17.07;100.00
64354;BME280;50681;53.334;-6.536;2023-09-30T00:46:02;101653.69;;;17.09;100.00
64354;BME280;50681;53.334;-6.536;2023-09-30T00:48:29;101658.75;;;16.74;100.00
64354;BME280;50681;53.334;-6.536;2023-09-30T00:50:54;101650.06;;;16.72;100.00
64354;BME280;50681;53.334;-6.536;2023-09-30T00:53:22;101649.47;;;16.61;100.00
64354;BME280;50681;53.334;-6.536;2023-09-30T00:55:47;101643.31;;;16.55;100.00
64354;BME280;50681;53.334;-6.536;2023-09-30T00:58:13;101630.78;;;16.54;100.00
64354;BME280;50681;53.334;-6.536;2023-09-30T01:00:39;101621.00;;;16.53;100.00
64354;BME280;50681;53.334;-6.536;2023-09-30T01:03:05;101623.31;;;16.46;100.00
64354;BME280;50681;53.334;-6.536;2023-09-30T01:05:31;101628.88;;;16.41;100.00
64354;BME280;50681;53.334;-6.536;2023-09-30T01:07:57;101637.53;;;16.43;100.00
64354;BME280;50681;53.334;-6.536;2023-09-30T01:10:22;101634.00;;;16.28;100.00
64354;BME280;50681;53.334;-6.536;2023-09-30T01:12:48;101631.28;;;16.28;100.00
64354;BME280;50681;53.334;-6.536;2023-09-30T01:15:13;101641.75;;;16.21;100.00
64354;BME280;50681;53.334;-6.536;2023-09-30T01:17:38;101655.09;;;16.23;100.00
64354;BME280;50681;53.334;-6.536;2023-09-30T01:20:04;101645.00;;;16.23;100.00
64354;BME280;50681;53.334;-6.536;2023-09-30T01:22:32;101653.25;;;16.18;100.00
64354;BME280;50681;53.334;-6.536;2023-09-30T01:24:57;101665.59;;;16.15;100.00
64354;BME280;50681;53.334;-6.536;2023-09-30T01:27:23;101665.59;;;16.15;100.00
64354;BME280;50681;53.334;-6.536;2023-09-30T01:29:48;101658.09;;;16.07;100.00
64354;BME280;50681;53.334;-6.536;2023-09-30T01:32:14;101664.94;;;16.05;100.00
64354;BME280;50681;53.334;-6.536;2023-09-30T01:34:41;101665.34;;;15.98;100.00
64354;BME280;50681;53.334;-6.536;2023-09-30T01:37:06;101661.88;;;15.92;100.00
64354;BME280;50681;53.334;-6.536;2023-09-30T01:39:32;101664.13;;;15.90;100.00
64354;BME280;50681;53.334;-6.536;2023-09-30T01:41:57;101660.06;;;15.87;100.00
64354;BME280;50681;53.334;-6.536;2023-09-30T01:44:23;101660.34;;;15.86;100.00
64354;BME280;50681;53.334;-6.536;2023-09-30T01:46:48;101651.94;;;15.82;100.00
64354;BME280;50681;53.334;-6.536;2023-09-30T01:49:14;101642.47;;;15.80;100.00
64354;BME280;50681;53.334;-6.536;2023-09-30T01:51:39;101640.94;;;15.73;100.00
64354;BME280;50681;53.334;-6.536;2023-09-30T01:54:04;101640.94;;;15.73;100.00
64354;BME280;50681;53.334;-6.536;2023-09-30T01:56:30;101639.00;;;15.74;100.00
64354;BME280;50681;53.334;-6.536;2023-09-30T01:58:56;101637.22;;;15.83;100.00
64354;BME280;50681;53.334;-6.536;2023-09-30T02:01:21;101635.75;;;15.91;100.00
64354;BME280;50681;53.334;-6.536;2023-09-30T02:03:47;101653.44;;;15.94;100.00
64354;BME280;50681;53.334;-6.536;2023-09-30T02:06:12;101649.59;;;15.95;100.00
64354;BME280;50681;53.334;-6.536;2023-09-30T02:08:38;101648.50;;;16.10;100.00
64354;BME280;50681;53.334;-6.536;2023-09-30T02:11:03;101640.25;;;16.15;100.00
64354;BME280;50681;53.334;-6.536;2023-09-30T02:13:33;101641.78;;;16.35;100.00
64354;BME280;50681;53.334;-6.536;2023-09-30T02:15:59;101628.38;;;16.25;100.00
64354;BME280;50681;53.334;-6.536;2023-09-30T02:18:24;101618.16;;;16.30;100.00
64354;BME280;50681;53.334;-6.536;2023-09-30T02:20:49;101627.16;;;16.31;100.00
64354;BME280;50681;53.334;-6.536;2023-09-30T02:23:15;101625.03;;;16.28;100.00
64354;BME280;50681;53.334;-6.536;2023-09-30T02:25:42;101640.97;;;16.35;100.00
64354;BME280;50681;53.334;-6.536;2023-09-30T02:28:08;101627.84;;;16.37;100.00
64354;BME280;50681;53.334;-6.536;2023-09-30T02:30:34;101617.56;;;16.34;100.00
64354;BME280;50681;53.334;-6.536;2023-09-30T02:32:59;101622.81;;;16.30;100.00
64354;BME280;50681;53.334;-6.536;2023-09-30T02:35:25;101609.56;;;16.23;100.00
64354;BME280;50681;53.334;-6.536;2023-09-30T02:37:51;101606.25;;;16.12;100.00
64354;BME280;50681;53.334;-6.536;2023-09-30T02:40:17;101613.91;;;16.10;100.00
64354;BME280;50681;53.334;-6.536;2023-09-30T02:42:43;101608.84;;;16.04;100.00
64354;BME280;50681;53.334;-6.536;2023-09-30T02:45:10;101599.78;;;16.08;100.00
64354;BME280;50681;53.334;-6.536;2023-09-30T02:47:37;101598.34;;;15.97;100.00
64354;BME280;50681;53.334;-6.536;2023-09-30T02:50:05;101597.94;;;16.04;100.00
64354;BME280;50681;53.334;-6.536;2023-09-30T02:52:31;101603.19;;;16.00;100.00
64354;BME280;50681;53.334;-6.536;2023-09-30T02:54:58;101600.59;;;16.23;100.00
64354;BME280;50681;53.334;-6.536;2023-09-30T02:57:24;101598.78;;;16.18;100.00
64354;BME280;50681;53.334;-6.536;2023-09-30T02:59:49;101593.63;;;16.30;100.00
64354;BME280;50681;53.334;-6.536;2023-09-30T03:02:17;101579.09;;;16.35;100.00
64354;BME280;50681;53.334;-6.536;2023-09-30T03:04:43;101581.31;;;16.47;100.00
64354;BME280;50681;53.334;-6.536;2023-09-30T03:07:09;101577.38;;;16.53;100.00
64354;BME280;50681;53.334;-6.536;2023-09-30T03:09:34;101570.50;;;16.56;100.00
64354;BME280;50681;53.334;-6.536;2023-09-30T03:12:01;101571.69;;;16.64;100.00
64354;BME280;50681;53.334;-6.536;2023-09-30T03:14:27;101565.47;;;16.49;100.00
64354;BME280;50681;53.334;-6.536;2023-09-30T03:16:57;101568.47;;;16.61;100.00
64354;BME280;50681;53.334;-6.536;2023-09-30T03:19:22;101568.38;;;16.67;100.00
64354;BME280;50681;53.334;-6.536;2023-09-30T03:21:48;101559.56;;;16.70;100.00
64354;BME280;50681;53.334;-6.536;2023-09-30T03:24:13;101550.59;;;16.69;100.00
64354;BME280;50681;53.334;-6.536;2023-09-30T03:26:39;101554.84;;;16.61;100.00
64354;BME280;50681;53.334;-6.536;2023-09-30T03:29:06;101549.31;;;16.53;100.00
64354;BME280;50681;53.334;-6.536;2023-09-30T03:31:34;101543.56;;;16.40;100.00
64354;BME280;50681;53.334;-6.536;2023-09-30T03:34:00;101543.34;;;16.37;100.00
64354;BME280;50681;53.334;-6.536;2023-09-30T03:36:25;101541.84;;;16.30;100.00
64354;BME280;50681;53.334;-6.536;2023-09-30T03:38:52;101541.25;;;16.34;100.00
64354;BME280;50681;53.334;-6.536;2023-09-30T03:41:24;101531.56;;;16.27;100.00
64354;BME280;50681;53.334;-6.536;2023-09-30T03:43:49;101534.56;;;16.40;100.00
64354;BME280;50681;53.334;-6.536;2023-09-30T03:46:15;101532.25;;;16.47;100.00
64354;BME280;50681;53.334;-6.536;2023-09-30T03:48:43;101532.34;;;16.42;100.00
64354;BME280;50681;53.334;-6.536;2023-09-30T03:51:13;101542.72;;;16.68;100.00
64354;BME280;50681;53.334;-6.536;2023-09-30T03:53:44;101544.81;;;16.71;100.00
64354;BME280;50681;53.334;-6.536;2023-09-30T03:56:11;101551.22;;;16.52;100.00
64354;BME280;50681;53.334;-6.536;2023-09-30T03:58:42;101549.16;;;16.72;100.00
64354;BME280;50681;53.334;-6.536;2023-09-30T04:01:10;101556.00;;;16.46;100.00
64354;BME280;50681;53.334;-6.536;2023-09-30T04:03:45;101556.38;;;16.40;100.00
64354;BME280;50681;53.334;-6.536;2023-09-30T04:06:10;101550.75;;;16.36;100.00
64354;BME280;50681;53.334;-6.536;2023-09-30T04:08:36;101551.31;;;16.47;100.00
64354;BME280;50681;53.334;-6.536;2023-09-30T04:11:02;101558.78;;;16.55;100.00
64354;BME280;50681;53.334;-6.536;2023-09-30T04:13:31;101550.59;;;16.55;100.00
64354;BME280;50681;53.334;-6.536;2023-09-30T04:15:56;101551.09;;;16.57;100.00
64354;BME280;50681;53.334;-6.536;2023-09-30T04:18:23;101551.72;;;16.54;100.00
64354;BME280;50681;53.334;-6.536;2023-09-30T04:20:51;101544.75;;;16.62;100.00
64354;BME280;50681;53.334;-6.536;2023-09-30T04:23:17;101546.38;;;16.63;100.00
64354;BME280;50681;53.334;-6.536;2023-09-30T04:25:44;101538.31;;;16.58;100.00
64354;BME280;50681;53.334;-6.536;2023-09-30T04:28:12;101529.63;;;16.56;100.00
64354;BME280;50681;53.334;-6.536;2023-09-30T04:30:37;101528.13;;;16.50;100.00
64354;BME280;50681;53.334;-6.536;2023-09-30T04:33:03;101532.13;;;16.66;100.00
64354;BME280;50681;53.334;-6.536;2023-09-30T04:35:30;101520.44;;;16.52;100.00
64354;BME280;50681;53.334;-6.536;2023-09-30T04:37:56;101516.50;;;16.44;100.00
64354;BME280;50681;53.334;-6.536;2023-09-30T04:40:26;101509.53;;;16.38;100.00
64354;BME280;50681;53.334;-6.536;2023-09-30T04:42:51;101501.88;;;16.40;100.00
64354;BME280;50681;53.334;-6.536;2023-09-30T04:45:20;101492.41;;;16.37;100.00
64354;BME280;50681;53.334;-6.536;2023-09-30T04:47:46;101493.13;;;16.29;100.00
64354;BME280;50681;53.334;-6.536;2023-09-30T04:50:13;101496.84;;;16.33;100.00
64354;BME280;50681;53.334;-6.536;2023-09-30T04:52:41;101487.34;;;16.30;100.00
64354;BME280;50681;53.334;-6.536;2023-09-30T04:55:07;101492.19;;;16.34;100.00
64354;BME280;50681;53.334;-6.536;2023-09-30T04:57:37;101485.72;;;16.29;100.00
64354;BME280;50681;53.334;-6.536;2023-09-30T05:00:03;101487.47;;;16.25;100.00
64354;BME280;50681;53.334;-6.536;2023-09-30T05:02:36;101492.41;;;16.23;100.00
64354;BME280;50681;53.334;-6.536;2023-09-30T05:05:01;101484.63;;;16.30;100.00
64354;BME280;50681;53.334;-6.536;2023-09-30T05:07:28;101489.56;;;16.28;100.00
64354;BME280;50681;53.334;-6.536;2023-09-30T05:09:54;101491.19;;;16.29;100.00
64354;BME280;50681;53.334;-6.536;2023-09-30T05:12:19;101494.72;;;16.30;100.00
64354;BME280;50681;53.334;-6.536;2023-09-30T05:14:45;101491.88;;;15.65;100.00
64354;BME280;50681;53.334;-6.536;2023-09-30T05:17:11;101494.09;;;15.63;100.00
64354;BME280;50681;53.334;-6.536;2023-09-30T05:19:38;101489.19;;;16.07;100.00
64354;BME280;50681;53.334;-6.536;2023-09-30T05:22:03;101491.22;;;16.15;100.00
64354;BME280;50681;53.334;-6.536;2023-09-30T05:24:30;101501.28;;;16.15;100.00
64354;BME280;50681;53.334;-6.536;2023-09-30T05:26:56;101502.28;;;16.19;100.00
64354;BME280;50681;53.334;-6.536;2023-09-30T05:29:22;101491.63;;;16.23;100.00
64354;BME280;50681;53.334;-6.536;2023-09-30T05:31:48;101487.66;;;16.29;100.00
64354;BME280;50681;53.334;-6.536;2023-09-30T05:34:13;101486.34;;;16.26;100.00
64354;BME280;50681;53.334;-6.536;2023-09-30T05:36:39;101489.56;;;16.28;100.00
64354;BME280;50681;53.334;-6.536;2023-09-30T05:39:04;101490.38;;;16.29;100.00
64354;BME280;50681;53.334;-6.536;2023-09-30T05:41:33;101489.84;;;16.55;100.00
64354;BME280;50681;53.334;-6.536;2023-09-30T05:43:58;101495.72;;;16.34;100.00
64354;BME280;50681;53.334;-6.536;2023-09-30T05:46:25;101498.47;;;16.34;100.00
64354;BME280;50681;53.334;-6.536;2023-09-30T05:48:52;101502.09;;;16.29;100.00
64354;BME280;50681;53.334;-6.536;2023-09-30T05:51:17;101503.91;;;16.34;100.00
64354;BME280;50681;53.334;-6.536;2023-09-30T05:53:44;101503.19;;;16.28;100.00
64354;BME280;50681;53.334;-6.536;2023-09-30T05:56:10;101510.59;;;16.28;100.00
64354;BME280;50681;53.334;-6.536;2023-09-30T05:58:36;101502.28;;;16.33;100.00
64354;BME280;50681;53.334;-6.536;2023-09-30T06:01:07;101504.69;;;16.35;100.00
64354;BME280;50681;53.334;-6.536;2023-09-30T06:03:32;101505.19;;;16.37;100.00
64354;BME280;50681;53.334;-6.536;2023-09-30T06:05:58;101503.47;;;16.41;100.00
64354;BME280;50681;53.334;-6.536;2023-09-30T06:08:25;101502.38;;;16.42;100.00
64354;BME280;50681;53.334;-6.536;2023-09-30T06:10:50;101497.91;;;16.46;100.00
64354;BME280;50681;53.334;-6.536;2023-09-30T06:13:16;101493.91;;;16.43;100.00
64354;BME280;50681;53.334;-6.536;2023-09-30T06:15:42;101484.63;;;16.44;100.00
64354;BME280;50681;53.334;-6.536;2023-09-30T06:18:09;101493.28;;;16.46;100.00
64354;BME280;50681;53.334;-6.536;2023-09-30T06:20:38;101484.50;;;16.50;100.00
64354;BME280;50681;53.334;-6.536;2023-09-30T06:23:04;101486.00;;;16.56;100.00
64354;BME280;50681;53.334;-6.536;2023-09-30T06:25:29;101491.94;;;16.58;100.00
64354;BME280;50681;53.334;-6.536;2023-09-30T06:27:55;101482.16;;;16.57;100.00
64354;BME280;50681;53.334;-6.536;2023-09-30T06:30:22;101484.88;;;16.57;100.00
64354;BME280;50681;53.334;-6.536;2023-09-30T06:32:50;101478.31;;;16.58;100.00
64354;BME280;50681;53.334;-6.536;2023-09-30T06:35:15;101472.53;;;16.59;100.00
64354;BME280;50681;53.334;-6.536;2023-09-30T06:37:41;101461.97;;;16.58;100.00
64354;BME280;50681;53.334;-6.536;2023-09-30T06:40:07;101461.59;;;16.73;100.00
64354;BME280;50681;53.334;-6.536;2023-09-30T06:42:34;101469.59;;;16.70;100.00
64354;BME280;50681;53.334;-6.536;2023-09-30T06:45:00;101463.13;;;16.66;100.00
64354;BME280;50681;53.334;-6.536;2023-09-30T06:47:26;101463.63;;;16.68;100.00
64354;BME280;50681;53.334;-6.536;2023-09-30T06:49:52;101471.91;;;16.77;100.00
64354;BME280;50681;53.334;-6.536;2023-09-30T06:52:18;101466.16;;;16.41;100.00
64354;BME280;50681;53.334;-6.536;2023-09-30T06:54:45;101464.00;;;16.75;100.00
64354;BME280;50681;53.334;-6.536;2023-09-30T06:57:10;101453.13;;;16.98;100.00
64354;BME280;50681;53.334;-6.536;2023-09-30T06:59:36;101449.16;;;17.04;100.00
64354;BME280;50681;53.334;-6.536;2023-09-30T07:02:02;101439.44;;;17.12;100.00
64354;BME280;50681;53.334;-6.536;2023-09-30T07:04:29;101441.31;;;17.34;100.00
64354;BME280;50681;53.334;-6.536;2023-09-30T07:06:56;101430.84;;;17.27;100.00
64354;BME280;50681;53.334;-6.536;2023-09-30T07:09:21;101436.97;;;17.33;100.00
64354;BME280;50681;53.334;-6.536;2023-09-30T07:11:47;101436.34;;;17.36;100.00
64354;BME280;50681;53.334;-6.536;2023-09-30T07:14:14;101427.03;;;17.37;100.00
64354;BME280;50681;53.334;-6.536;2023-09-30T07:16:40;101423.53;;;17.37;100.00
64354;BME280;50681;53.334;-6.536;2023-09-30T07:19:05;101423.25;;;17.47;100.00
64354;BME280;50681;53.334;-6.536;2023-09-30T07:21:31;101416.81;;;17.52;100.00
64354;BME280;50681;53.334;-6.536;2023-09-30T07:23:56;101431.81;;;17.63;100.00
64354;BME280;50681;53.334;-6.536;2023-09-30T07:26:25;101416.78;;;17.83;100.00
64354;BME280;50681;53.334;-6.536;2023-09-30T07:28:51;101423.63;;;17.63;100.00
64354;BME280;50681;53.334;-6.536;2023-09-30T07:31:19;101430.72;;;17.73;100.00
64354;BME280;50681;53.334;-6.536;2023-09-30T07:33:45;101419.66;;;17.78;100.00
64354;BME280;50681;53.334;-6.536;2023-09-30T07:36:10;101418.84;;;17.77;100.00
64354;BME280;50681;53.334;-6.536;2023-09-30T07:38:36;101417.72;;;17.78;100.00
64354;BME280;50681;53.334;-6.536;2023-09-30T07:41:01;101427.22;;;17.81;100.00
64354;BME280;50681;53.334;-6.536;2023-09-30T07:43:28;101420.94;;;17.81;100.00
64354;BME280;50681;53.334;-6.536;2023-09-30T07:45:54;101418.19;;;17.72;100.00
64354;BME280;50681;53.334;-6.536;2023-09-30T07:48:19;101423.97;;;17.70;100.00
64354;BME280;50681;53.334;-6.536;2023-09-30T07:50:45;101424.00;;;17.79;100.00
64354;BME280;50681;53.334;-6.536;2023-09-30T07:53:12;101424.78;;;17.80;100.00
64354;BME280;50681;53.334;-6.536;2023-09-30T07:55:38;101425.28;;;17.82;100.00
64354;BME280;50681;53.334;-6.536;2023-09-30T07:58:05;101421.13;;;17.84;100.00
64354;BME280;50681;53.334;-6.536;2023-09-30T08:00:33;101422.38;;;17.78;100.00
64354;BME280;50681;53.334;-6.536;2023-09-30T08:02:59;101423.06;;;17.92;100.00
64354;BME280;50681;53.334;-6.536;2023-09-30T08:05:26;101435.47;;;17.99;100.00
64354;BME280;50681;53.334;-6.536;2023-09-30T08:07:51;101422.44;;;17.96;100.00
64354;BME280;50681;53.334;-6.536;2023-09-30T08:10:17;101414.13;;;18.01;100.00
64354;BME280;50681;53.334;-6.536;2023-09-30T08:12:42;101408.75;;;17.87;100.00
64354;BME280;50681;53.334;-6.536;2023-09-30T08:15:11;101410.06;;;17.98;100.00
64354;BME280;50681;53.334;-6.536;2023-09-30T08:17:40;101403.34;;;18.04;100.00
64354;BME280;50681;53.334;-6.536;2023-09-30T08:20:06;101395.81;;;18.10;100.00
64354;BME280;50681;53.334;-6.536;2023-09-30T08:22:33;101393.22;;;18.14;100.00
64354;BME280;50681;53.334;-6.536;2023-09-30T08:24:59;101378.13;;;18.25;100.00
64354;BME280;50681;53.334;-6.536;2023-09-30T08:27:25;101377.00;;;18.26;100.00
64354;BME280;50681;53.334;-6.536;2023-09-30T08:29:50;101375.06;;;18.35;100.00
64354;BME280;50681;53.334;-6.536;2023-09-30T08:32:16;101384.72;;;18.42;100.00
64354;BME280;50681;53.334;-6.536;2023-09-30T08:34:44;101378.88;;;18.61;100.00
64354;BME280;50681;53.334;-6.536;2023-09-30T08:37:10;101385.19;;;18.44;100.00
64354;BME280;50681;53.334;-6.536;2023-09-30T08:39:39;101381.94;;;18.68;100.00
64354;BME280;50681;53.334;-6.536;2023-09-30T08:42:09;101376.97;;;18.61;100.00
64354;BME280;50681;53.334;-6.536;2023-09-30T08:44:38;101373.13;;;18.62;100.00
64354;BME280;50681;53.334;-6.536;2023-09-30T08:47:06;101377.91;;;18.74;100.00
64354;BME280;50681;53.334;-6.536;2023-09-30T08:49:34;101376.75;;;18.93;100.00
64354;BME280;50681;53.334;-6.536;2023-09-30T08:52:02;101373.06;;;18.89;100.00
64354;BME280;50681;53.334;-6.536;2023-09-30T08:54:28;101382.41;;;19.44;100.00
64354;BME280;50681;53.334;-6.536;2023-09-30T08:56:54;101376.59;;;19.07;100.00
64354;BME280;50681;53.334;-6.536;2023-09-30T08:59:22;101389.78;;;19.44;100.00
64354;BME280;50681;53.334;-6.536;2023-09-30T09:01:49;101381.63;;;19.35;100.00
64354;BME280;50681;53.334;-6.536;2023-09-30T09:04:14;101382.88;;;19.46;100.00
64354;BME280;50681;53.334;-6.536;2023-09-30T09:06:40;101376.75;;;19.49;100.00
64354;BME280;50681;53.334;-6.536;2023-09-30T09:09:16;101380.25;;;19.80;100.00
64354;BME280;50681;53.334;-6.536;2023-09-30T09:11:43;101378.63;;;19.58;100.00
64354;BME280;50681;53.334;-6.536;2023-09-30T09:14:09;101387.03;;;19.52;100.00
64354;BME280;50681;53.334;-6.536;2023-09-30T09:16:34;101377.22;;;19.51;100.00
64354;BME280;50681;53.334;-6.536;2023-09-30T09:19:13;101372.38;;;19.78;100.00
64354;BME280;50681;53.334;-6.536;2023-09-30T09:21:56;101372.09;;;19.71;100.00
64354;BME280;50681;53.334;-6.536;2023-09-30T09:24:30;101366.84;;;19.57;100.00
64354;BME280;50681;53.334;-6.536;2023-09-30T09:27:10;101349.28;;;19.58;100.00
64354;BME280;50681;53.334;-6.536;2023-09-30T09:29:37;101339.94;;;19.29;100.00
64354;BME280;50681;53.334;-6.536;2023-09-30T09:32:16;101334.25;;;19.43;100.00
64354;BME280;50681;53.334;-6.536;2023-09-30T09:34:43;101325.06;;;19.39;100.00
64354;BME280;50681;53.334;-6.536;2023-09-30T09:37:17;101334.34;;;19.56;100.00
64354;BME280;50681;53.334;-6.536;2023-09-30T09:39:52;101335.47;;;19.54;100.00
64354;BME280;50681;53.334;-6.536;2023-09-30T09:42:29;101326.13;;;19.56;100.00
64354;BME280;50681;53.334;-6.536;2023-09-30T09:44:59;101323.22;;;19.52;100.00
64354;BME280;50681;53.334;-6.536;2023-09-30T09:47:24;101321.81;;;19.46;100.00
64354;BME280;50681;53.334;-6.536;2023-09-30T09:49:51;101322.03;;;19.62;100.00
64354;BME280;50681;53.334;-6.536;2023-09-30T09:52:20;101322.25;;;19.57;100.00
64354;BME280;50681;53.334;-6.536;2023-09-30T09:54:46;101312.25;;;19.52;100.00
64354;BME280;50681;53.334;-6.536;2023-09-30T09:57:14;101320.16;;;19.53;100.00
64354;BME280;50681;53.334;-6.536;2023-09-30T09:59:42;101312.50;;;19.68;100.00
64354;BME280;50681;53.334;-6.536;2023-09-30T10:02:11;101307.16;;;19.72;100.00
64354;BME280;50681;53.334;-6.536;2023-09-30T10:04:43;101298.31;;;19.87;100.00
64354;BME280;50681;53.334;-6.536;2023-09-30T10:07:13;101294.53;;;19.79;100.00
64354;BME280;50681;53.334;-6.536;2023-09-30T10:09:41;101286.31;;;19.79;100.00
64354;BME280;50681;53.334;-6.536;2023-09-30T10:12:11;101286.16;;;19.76;100.00
64354;BME280;50681;53.334;-6.536;2023-09-30T10:14:37;101286.72;;;20.11;100.00
64354;BME280;50681;53.334;-6.536;2023-09-30T10:17:03;101268.50;;;19.64;100.00
64354;BME280;50681;53.334;-6.536;2023-09-30T10:19:29;101253.09;;;19.60;100.00
64354;BME280;50681;53.334;-6.536;2023-09-30T10:24:48;101249.34;;;19.64;100.00
64354;BME280;50681;53.334;-6.536;2023-09-30T10:41:00;101234.25;;;20.01;100.00
64354;BME280;50681;53.334;-6.536;2023-09-30T10:43:35;101246.06;;;20.14;100.00
64354;BME280;50681;53.334;-6.536;2023-09-30T10:46:02;101247.47;;;19.98;100.00
64354;BME280;50681;53.334;-6.536;2023-09-30T10:50:57;101244.00;;;20.10;100.00
64354;BME280;50681;53.334;-6.536;2023-09-30T10:53:27;101238.31;;;19.94;100.00
64354;BME280;50681;53.334;-6.536;2023-09-30T10:55:58;101237.84;;;20.14;100.00
64354;BME280;50681;53.334;-6.536;2023-09-30T10:58:46;101236.38;;;20.29;100.00
64354;BME280;50681;53.334;-6.536;2023-09-30T11:01:14;101224.97;;;19.93;100.00
64354;BME280;50681;53.334;-6.536;2023-09-30T11:03:43;101219.84;;;20.04;100.00
64354;BME280;50681;53.334;-6.536;2023-09-30T11:06:16;101223.00;;;20.15;100.00
64354;BME280;50681;53.334;-6.536;2023-09-30T11:13:59;101205.38;;;20.03;100.00
64354;BME280;50681;53.334;-6.536;2023-09-30T11:16:24;101209.03;;;20.07;100.00
64354;BME280;50681;53.334;-6.536;2023-09-30T11:18:53;101200.63;;;20.25;100.00
64354;BME280;50681;53.334;-6.536;2023-09-30T11:21:19;101207.75;;;20.05;100.00
64354;BME280;50681;53.334;-6.536;2023-09-30T11:23:44;101199.41;;;20.01;100.00
64354;BME280;50681;53.334;-6.536;2023-09-30T11:26:10;101194.47;;;19.94;100.00
64354;BME280;50681;53.334;-6.536;2023-09-30T11:28:40;101193.16;;;20.13;100.00
64354;BME280;50681;53.334;-6.536;2023-09-30T11:31:11;101185.06;;;20.17;100.00
64354;BME280;50681;53.334;-6.536;2023-09-30T11:33:51;101175.34;;;20.19;100.00
64354;BME280;50681;53.334;-6.536;2023-09-30T11:36:18;101171.34;;;20.04;100.00
64354;BME280;50681;53.334;-6.536;2023-09-30T11:38:46;101153.63;;;20.14;100.00
64354;BME280;50681;53.334;-6.536;2023-09-30T11:41:15;101151.25;;;20.12;100.00
64354;BME280;50681;53.334;-6.536;2023-09-30T11:46:31;101134.13;;;20.16;100.00
64354;BME280;50681;53.334;-6.536;2023-09-30T11:49:04;101123.97;;;20.41;100.00
64354;BME280;50681;53.334;-6.536;2023-09-30T11:51:42;101121.69;;;20.55;100.00
64354;BME280;50681;53.334;-6.536;2023-09-30T11:54:11;101118.25;;;20.34;100.00
64354;BME280;50681;53.334;-6.536;2023-09-30T11:56:37;101110.38;;;20.32;100.00
64354;BME280;50681;53.334;-6.536;2023-09-30T11:59:03;101099.16;;;20.12;100.00
64354;BME280;50681;53.334;-6.536;2023-09-30T12:01:29;101088.19;;;20.12;100.00
64354;BME280;50681;53.334;-6.536;2023-09-30T12:03:57;101090.94;;;20.12;100.00
64354;BME280;50681;53.334;-6.536;2023-09-30T12:06:23;101080.06;;;19.91;100.00
64354;BME280;50681;53.334;-6.536;2023-09-30T12:08:48;101074.13;;;20.02;100.00
64354;BME280;50681;53.334;-6.536;2023-09-30T12:11:19;101062.25;;;19.97;100.00
64354;BME280;50681;53.334;-6.536;2023-09-30T12:13:45;101051.50;;;20.05;100.00
64354;BME280;50681;53.334;-6.536;2023-09-30T12:16:13;101039.31;;;20.15;100.00
64354;BME280;50681;53.334;-6.536;2023-09-30T12:18:39;101032.22;;;20.14;100.00
64354;BME280;50681;53.334;-6.536;2023-09-30T12:21:07;101029.03;;;20.11;100.00
64354;BME280;50681;53.334;-6.536;2023-09-30T12:23:33;101033.69;;;20.11;100.00
64354;BME280;50681;53.334;-6.536;2023-09-30T12:25:59;101028.22;;;20.11;100.00
64354;BME280;50681;53.334;-6.536;2023-09-30T12:28:24;101030.72;;;20.16;100.00
64354;BME280;50681;53.334;-6.536;2023-09-30T12:30:51;101013.97;;;20.18;100.00
64354;BME280;50681;53.334;-6.536;2023-09-30T12:33:17;101016.34;;;20.07;100.00
64354;BME280;50681;53.334;-6.536;2023-09-30T12:35:43;100999.22;;;20.10;100.00
64354;BME280;50681;53.334;-6.536;2023-09-30T12:38:08;100993.38;;;19.87;100.00
64354;BME280;50681;53.334;-6.536;2023-09-30T12:40:34;100981.41;;;20.04;100.00
64354;BME280;50681;53.334;-6.536;2023-09-30T12:42:59;100975.69;;;20.09;100.00
64354;BME280;50681;53.334;-6.536;2023-09-30T12:45:25;100962.44;;;20.11;100.00
64354;BME280;50681;53.334;-6.536;2023-09-30T12:47:50;100957.06;;;20.15;100.00
64354;BME280;50681;53.334;-6.536;2023-09-30T12:50:17;100950.56;;;19.94;100.00
64354;BME280;50681;53.334;-6.536;2023-09-30T12:52:43;100944.50;;;20.14;100.00
64354;BME280;50681;53.334;-6.536;2023-09-30T12:55:09;100940.63;;;20.15;100.00
64354;BME280;50681;53.334;-6.536;2023-09-30T12:57:36;100931.38;;;20.07;100.00
64354;BME280;50681;53.334;-6.536;2023-09-30T13:00:02;100921.97;;;20.20;100.00